Time;durP1;ratioP1;P1;durP2;ratioP2;P2;SDS_P1;SDS_P2;PMS_P1;PMS_P2;Temp;Humidity;BMP_temperature;BMP_pressure;BME280_temperature;BME280_humidity;BME280_pressure;Samples;Min_cycle;Max_cycle;Signal;HPM_P1;HPM_P2
2023/06/01 00:00:00;;;;;;;;;7.00;7.00;;;;;22.38;33.24;100927.27;110230;1248;19964;-39
2023/06/01 00:02:27;;;;;;;;;8.50;8.00;;;;;22.37;33.43;100924.36;110248;1247;19206;-40
2023/06/01 00:04:55;;;;;;;;;7.00;7.00;;;;;22.37;33.35;100929.31;110217;1263;18579;-39
2023/06/01 00:07:23;;;;;;;;;8.00;8.00;;;;;22.36;33.35;100927.24;110212;1247;18410;-40
2023/06/01 00:09:51;;;;;;;;;8.00;8.00;;;;;22.37;33.41;100926.66;110286;1263;21556;-39
2023/06/01 00:12:19;;;;;;;;;8.00;7.00;;;;;22.35;33.51;100921.34;110204;1257;18745;-40
2023/06/01 00:14:46;;;;;;;;;8.00;7.00;;;;;22.34;33.54;100922.37;110253;1263;18392;-40
2023/06/01 00:17:14;;;;;;;;;7.00;7.00;;;;;22.33;33.45;100922.52;110212;1263;19190;-40
2023/06/01 00:19:44;;;;;;;;;9.00;8.00;;;;;22.34;33.53;100922.10;110169;1264;19951;-39
2023/06/01 00:22:12;;;;;;;;;9.00;8.00;;;;;22.33;33.69;100918.73;110163;1264;20657;-40
2023/06/01 00:24:39;;;;;;;;;9.00;8.00;;;;;22.33;33.57;100919.58;110200;1263;19207;-39
2023/06/01 00:27:07;;;;;;;;;8.00;8.00;;;;;22.33;33.63;100917.05;110296;1250;19910;-40
2023/06/01 00:29:34;;;;;;;;;7.00;7.00;;;;;22.32;33.74;100914.61;110278;1257;20178;-38
2023/06/01 00:32:02;;;;;;;;;9.00;9.00;;;;;22.32;33.64;100917.75;110244;1263;20743;-40
2023/06/01 00:34:29;;;;;;;;;8.00;7.33;;;;;22.32;33.71;100917.96;110327;1251;20115;-40
2023/06/01 00:36:57;;;;;;;;;9.00;9.00;;;;;22.32;33.68;100921.27;110262;1263;21591;-40
2023/06/01 00:39:24;;;;;;;;;8.00;7.00;;;;;22.31;33.58;100915.01;110238;1249;19294;-40
2023/06/01 00:41:52;;;;;;;;;7.00;7.00;;;;;22.30;33.85;100919.61;110197;1257;19985;-43
2023/06/01 00:44:19;;;;;;;;;11.00;8.50;;;;;22.29;33.94;100912.61;110234;1251;19630;-40
2023/06/01 00:46:47;;;;;;;;;9.00;8.67;;;;;22.30;33.75;100910.35;110287;1250;18310;-41
2023/06/01 00:49:14;;;;;;;;;8.00;7.00;;;;;22.29;33.91;100909.16;110274;1263;18853;-40
2023/06/01 00:51:42;;;;;;;;;10.50;8.00;;;;;22.29;33.82;100910.09;110291;1257;19756;-39
2023/06/01 00:54:09;;;;;;;;;9.00;9.00;;;;;22.29;33.83;100911.89;110268;1263;19736;-40
2023/06/01 00:56:37;;;;;;;;;9.00;9.00;;;;;22.28;33.86;100910.98;109998;1263;300027;-41
2023/06/01 00:59:04;;;;;;;;;9.00;7.00;;;;;22.28;33.69;100911.19;110326;1250;19612;-40
2023/06/01 01:01:33;;;;;;;;;11.00;9.00;;;;;22.28;33.87;100907.19;110235;1257;18016;-41
2023/06/01 01:04:01;;;;;;;;;9.00;9.00;;;;;22.27;33.96;100905.94;110217;1247;19882;-39
2023/06/01 01:06:30;;;;;;;;;11.00;11.00;;;;;22.26;33.71;100914.79;110257;1247;20066;-40
2023/06/01 01:08:58;;;;;;;;;8.50;8.50;;;;;22.26;33.93;100910.46;110246;1264;21885;-40
2023/06/01 01:11:25;;;;;;;;;9.00;9.00;;;;;22.25;34.01;100913.98;110284;1247;18869;-37
2023/06/01 01:13:53;;;;;;;;;11.00;9.00;;;;;22.25;33.97;100908.55;110311;1263;19527;-39
2023/06/01 01:16:20;;;;;;;;;9.50;9.50;;;;;22.25;34.02;100905.86;110272;1249;19203;-39
2023/06/01 01:18:54;;;;;;;;;11.00;9.00;;;;;22.26;34.23;100906.85;110294;1263;18973;-39
2023/06/01 01:21:28;;;;;;;;;9.00;8.00;;;;;22.25;33.92;100903.01;110282;1263;19422;-40
2023/06/01 01:23:58;;;;;;;;;9.00;9.00;;;;;22.24;34.09;100900.89;110264;1263;19302;-38
2023/06/01 01:26:26;;;;;;;;;9.00;8.50;;;;;22.23;34.18;100900.61;110266;1261;20166;-40
2023/06/01 01:28:54;;;;;;;;;12.00;9.00;;;;;22.24;34.21;100894.16;110260;1263;18590;-39
2023/06/01 01:31:21;;;;;;;;;9.00;8.50;;;;;22.24;34.25;100895.60;110297;1248;19330;-45
2023/06/01 01:33:49;;;;;;;;;9.00;8.00;;;;;22.23;34.28;100899.14;110262;1264;18534;-41
2023/06/01 01:36:17;;;;;;;;;9.00;8.50;;;;;22.23;34.36;100896.86;110212;1263;18178;-41
2023/06/01 01:38:44;;;;;;;;;11.00;11.00;;;;;22.22;34.27;100893.08;110184;1250;19421;-39
2023/06/01 01:41:11;;;;;;;;;9.00;8.00;;;;;22.22;34.40;100892.15;110214;1248;19883;-39
2023/06/01 01:43:39;;;;;;;;;10.50;9.00;;;;;22.21;34.35;100890.91;110102;1263;18538;-39
2023/06/01 01:46:06;;;;;;;;;9.00;9.00;;;;;22.20;34.45;100890.77;110243;1263;18393;-39
2023/06/01 01:48:34;;;;;;;;;8.00;8.00;;;;;22.19;34.39;100890.01;110244;1257;18915;-38
2023/06/01 01:51:01;;;;;;;;;11.50;9.00;;;;;22.19;34.43;100889.09;110257;1248;18195;-37
2023/06/01 01:53:29;;;;;;;;;9.33;8.67;;;;;22.19;34.40;100891.72;110262;1263;19479;-39
2023/06/01 01:55:56;;;;;;;;;9.00;8.00;;;;;22.19;34.42;100890.08;110301;1251;20119;-39
2023/06/01 01:58:24;;;;;;;;;8.00;8.00;;;;;22.18;34.39;100888.38;110238;1247;19817;-39
2023/06/01 02:00:51;;;;;;;;;9.00;8.00;;;;;22.18;34.55;100890.30;110262;1264;17871;-39
2023/06/01 02:03:18;;;;;;;;;9.00;9.00;;;;;22.16;34.51;100887.42;110297;1256;18557;-40
2023/06/01 02:05:46;;;;;;;;;12.00;12.00;;;;;22.17;34.56;100889.23;110205;1248;23119;-41
2023/06/01 02:08:13;;;;;;;;;11.00;9.00;;;;;22.17;34.56;100890.27;110270;1263;21889;-39
2023/06/01 02:10:41;;;;;;;;;10.00;9.00;;;;;22.16;34.59;100887.33;110238;1251;19938;-39
2023/06/01 02:13:08;;;;;;;;;11.00;9.00;;;;;22.16;34.61;100887.33;110205;1247;21392;-39
2023/06/01 02:15:36;;;;;;;;;11.00;9.33;;;;;22.15;34.45;100885.39;110223;1256;19649;-39
2023/06/01 02:18:03;;;;;;;;;11.00;10.00;;;;;22.15;34.48;100885.80;110184;1263;19133;-39
2023/06/01 02:20:31;;;;;;;;;11.00;8.00;;;;;22.15;34.50;100883.21;110195;1249;18569;-39
2023/06/01 02:22:58;;;;;;;;;10.33;9.67;;;;;22.14;34.34;100881.35;110170;1258;18542;-39
2023/06/01 02:25:26;;;;;;;;;11.00;11.00;;;;;22.14;34.36;100881.89;110179;1264;18932;-40
2023/06/01 02:27:53;;;;;;;;;10.50;9.00;;;;;22.13;34.48;100882.17;110198;1264;21893;-39
2023/06/01 02:30:21;;;;;;;;;8.00;8.00;;;;;22.12;34.43;100879.68;110249;1251;19516;-38
2023/06/01 02:32:49;;;;;;;;;8.00;8.00;;;;;22.12;34.44;100881.90;110275;1264;19072;-40
2023/06/01 02:35:16;;;;;;;;;9.00;9.00;;;;;22.12;34.47;100880.83;110216;1247;19605;-41
2023/06/01 02:37:44;;;;;;;;;8.00;8.00;;;;;22.11;34.46;100884.02;110195;1263;20568;-39
2023/06/01 02:40:12;;;;;;;;;10.50;10.50;;;;;22.10;34.49;100878.98;110218;1263;19945;-40
2023/06/01 02:42:39;;;;;;;;;8.33;8.33;;;;;22.10;34.36;100869.92;110243;1264;21455;-39
2023/06/01 02:45:07;;;;;;;;;8.00;7.50;;;;;22.10;34.38;100873.54;110226;1263;19277;-40
2023/06/01 02:47:34;;;;;;;;;10.00;7.00;;;;;22.10;34.29;100871.23;110207;1257;19898;-39
2023/06/01 02:50:02;;;;;;;;;9.00;9.00;;;;;22.10;34.48;100868.86;110246;1263;19694;-40
2023/06/01 02:52:31;;;;;;;;;7.50;7.50;;;;;22.10;34.46;100868.48;110181;1264;18897;-40
2023/06/01 02:54:58;;;;;;;;;9.00;8.00;;;;;22.09;34.24;100866.08;110180;1247;21858;-40
2023/06/01 02:57:26;;;;;;;;;7.50;7.00;;;;;22.08;34.37;100864.49;110220;1251;19619;-40
2023/06/01 02:59:53;;;;;;;;;8.50;8.00;;;;;22.08;34.31;100863.27;110242;1263;18644;-40
2023/06/01 03:02:21;;;;;;;;;9.00;8.00;;;;;22.08;34.39;100859.84;110240;1263;20102;-40
2023/06/01 03:04:49;;;;;;;;;9.00;8.67;;;;;22.09;34.38;100857.00;110227;1264;19926;-40
2023/06/01 03:07:17;;;;;;;;;8.00;8.00;;;;;22.07;34.34;100861.88;110250;1263;18059;-41
2023/06/01 03:09:44;;;;;;;;;8.00;8.00;;;;;22.06;34.26;100857.28;110260;1263;21875;-40
2023/06/01 03:12:12;;;;;;;;;9.00;8.00;;;;;22.05;34.50;100853.97;110208;1264;19532;-43
2023/06/01 03:14:39;;;;;;;;;9.00;9.00;;;;;22.05;34.36;100851.54;110214;1263;20475;-40
2023/06/01 03:17:07;;;;;;;;;9.00;9.00;;;;;22.05;34.36;100849.39;110280;1257;20179;-42
2023/06/01 03:19:34;;;;;;;;;9.00;8.00;;;;;22.03;34.37;100839.83;110231;1248;18945;-38
2023/06/01 03:22:01;;;;;;;;;11.00;11.00;;;;;22.04;34.46;100844.05;110215;1247;20587;-39
2023/06/01 03:24:29;;;;;;;;;9.00;9.00;;;;;22.03;34.32;100841.89;110194;1249;20021;-39
2023/06/01 03:26:56;;;;;;;;;7.50;7.50;;;;;22.04;34.39;100847.53;110198;1263;18960;-40
2023/06/01 03:29:24;;;;;;;;;9.00;8.50;;;;;22.03;34.38;100847.39;110233;1263;19211;-39
2023/06/01 03:31:51;;;;;;;;;9.00;8.50;;;;;22.04;34.36;100850.43;110164;1257;22759;-39
2023/06/01 03:34:21;;;;;;;;;11.00;9.00;;;;;22.04;34.32;100852.23;110182;1263;18226;-39
2023/06/01 03:36:48;;;;;;;;;8.50;8.50;;;;;22.05;34.50;100847.42;110117;1263;21784;-39
2023/06/01 03:39:16;;;;;;;;;9.00;9.00;;;;;22.03;34.55;100845.41;110171;1263;18947;-39
2023/06/01 03:41:44;;;;;;;;;9.00;8.00;;;;;22.02;34.65;100846.26;110154;1263;18445;-39
2023/06/01 03:44:11;;;;;;;;;8.00;7.00;;;;;22.03;34.61;100846.13;110212;1257;20259;-42
2023/06/01 03:46:39;;;;;;;;;10.00;10.00;;;;;22.03;34.53;100840.38;110296;1248;19954;-40
2023/06/01 03:49:06;;;;;;;;;11.00;11.00;;;;;22.04;34.67;100840.09;110228;1247;18177;-40
2023/06/01 03:51:35;;;;;;;;;10.67;10.67;;;;;22.03;34.66;100842.02;110231;1263;19285;-40
2023/06/01 03:54:03;;;;;;;;;11.00;9.00;;;;;22.02;34.63;100843.39;110250;1251;21476;-40
2023/06/01 03:56:30;;;;;;;;;9.00;8.00;;;;;22.03;34.59;100841.34;110231;1250;20041;-40
2023/06/01 03:58:58;;;;;;;;;11.00;9.00;;;;;22.02;34.64;100843.43;110240;1264;19244;-39
2023/06/01 04:01:29;;;;;;;;;12.00;12.00;;;;;22.02;34.73;100844.52;110227;1248;22047;-39
2023/06/01 04:03:57;;;;;;;;;12.67;12.00;;;;;21.80;35.05;100842.38;110214;1248;21373;-39
2023/06/01 04:06:25;;;;;;;;;10.00;10.00;;;;;21.30;35.84;100840.63;110245;1263;19614;-39
2023/06/01 04:08:55;;;;;;;;;14.00;12.00;;;;;20.99;36.45;100840.91;110221;1263;18760;-40
2023/06/01 04:11:23;;;;;;;;;14.00;13.00;;;;;20.88;36.64;100840.13;110238;1263;21670;-39
2023/06/01 04:13:50;;;;;;;;;10.50;10.00;;;;;20.89;37.05;100836.09;110322;1263;21104;-39
2023/06/01 04:16:18;;;;;;;;;15.00;14.00;;;;;20.85;37.03;100835.07;110238;1263;18919;-39
2023/06/01 04:18:45;;;;;;;;;13.50;12.00;;;;;20.75;37.40;100828.71;110193;1263;18728;-39
2023/06/01 04:21:13;;;;;;;;;11.00;11.00;;;;;20.79;37.38;100827.06;110208;1264;21986;-40
2023/06/01 04:23:42;;;;;;;;;11.00;11.00;;;;;20.83;37.44;100827.52;110237;1247;18559;-40
2023/06/01 04:26:09;;;;;;;;;14.00;13.00;;;;;20.84;37.46;100823.61;110257;1263;18602;-40
2023/06/01 04:28:43;;;;;;;;;11.00;11.00;;;;;20.74;37.49;100823.56;110292;1263;21862;-41
2023/06/01 04:31:16;;;;;;;;;11.00;11.00;;;;;20.64;37.77;100826.00;110288;1247;21880;-39
2023/06/01 04:33:45;;;;;;;;;10.00;10.00;;;;;20.67;38.26;100820.77;110287;1257;20378;-40
2023/06/01 04:36:13;;;;;;;;;13.00;11.00;;;;;20.81;38.00;100821.00;110320;1263;18421;-40
2023/06/01 04:38:40;;;;;;;;;13.00;11.00;;;;;20.84;38.09;100819.25;110296;1263;19911;-39
2023/06/01 04:41:09;;;;;;;;;11.67;11.00;;;;;20.77;38.19;100816.34;110239;1263;20382;-40
2023/06/01 04:43:39;;;;;;;;;10.50;10.50;;;;;20.67;38.49;100806.80;110247;1247;18270;-40
2023/06/01 04:46:07;;;;;;;;;13.50;13.00;;;;;20.74;38.36;100802.80;110271;1263;19924;-42
2023/06/01 04:48:36;;;;;;;;;14.00;13.50;;;;;20.66;38.70;100801.83;110215;1247;22211;-39
2023/06/01 04:51:04;;;;;;;;;13.00;13.00;;;;;20.51;38.74;100797.92;110222;1263;19475;-40
2023/06/01 04:53:31;;;;;;;;;11.00;11.00;;;;;20.51;39.15;100792.95;110184;1251;20150;-39
2023/06/01 04:55:59;;;;;;;;;14.00;14.00;;;;;20.57;38.97;100798.39;110254;1263;18782;-39
2023/06/01 04:58:26;;;;;;;;;11.00;11.00;;;;;20.65;39.09;100792.20;110256;1251;19566;-40
2023/06/01 05:00:54;;;;;;;;;14.00;14.00;;;;;20.58;39.43;100793.75;110218;1263;19456;-39
2023/06/01 05:03:21;;;;;;;;;14.33;13.33;;;;;20.58;39.43;100793.92;110258;1248;20199;-40
2023/06/01 05:05:49;;;;;;;;;12.00;11.00;;;;;20.58;39.41;100788.98;110189;1263;18093;-38
2023/06/01 05:08:17;;;;;;;;;13.00;13.00;;;;;20.55;39.80;100789.98;110231;1263;18596;-40
2023/06/01 05:10:44;;;;;;;;;19.50;16.00;;;;;20.61;39.85;100790.98;110272;1247;20027;-38
2023/06/01 05:13:12;;;;;;;;;14.00;14.00;;;;;20.54;39.95;100791.01;110224;1263;19553;-41
2023/06/01 05:15:39;;;;;;;;;25.67;22.67;;;;;20.57;40.28;100787.02;110235;1257;18580;-38
2023/06/01 05:18:07;;;;;;;;;26.00;22.33;;;;;20.70;40.34;100785.61;110193;1251;20271;-40
2023/06/01 05:20:34;;;;;;;;;17.00;16.00;;;;;20.76;40.20;100778.38;110208;1264;19862;-39
2023/06/01 05:23:02;;;;;;;;;19.00;19.00;;;;;20.72;40.54;100783.12;110208;1251;22553;-40
2023/06/01 05:25:29;;;;;;;;;23.00;19.00;;;;;20.77;40.89;100778.61;110234;1263;18558;-38
2023/06/01 05:27:57;;;;;;;;;22.00;19.00;;;;;20.84;40.96;100779.77;110276;1263;18124;-38
2023/06/01 05:30:24;;;;;;;;;16.00;16.00;;;;;20.88;41.12;100774.45;110258;1251;22029;-39
2023/06/01 05:32:52;;;;;;;;;17.00;16.00;;;;;20.87;41.39;100774.22;110266;1251;21519;-40
2023/06/01 05:35:20;;;;;;;;;17.00;14.00;;;;;20.90;41.69;100777.88;110225;1263;19724;-39
2023/06/01 05:37:47;;;;;;;;;13.50;12.00;;;;;20.86;41.96;100777.70;110228;1247;20245;-40
2023/06/01 05:40:15;;;;;;;;;13.50;10.50;;;;;20.93;42.19;100773.88;110175;1251;18628;-39
2023/06/01 05:42:42;;;;;;;;;14.00;11.00;;;;;20.99;42.68;100774.73;110260;1247;21429;-40
2023/06/01 05:45:10;;;;;;;;;11.00;8.00;;;;;21.08;42.84;100770.64;110229;1250;20997;-40
2023/06/01 05:47:37;;;;;;;;;11.00;10.00;;;;;21.11;43.11;100771.62;110205;1263;19883;-40
2023/06/01 05:50:05;;;;;;;;;19.00;16.50;;;;;21.12;43.32;100769.34;110255;1257;22400;-40
2023/06/01 05:52:33;;;;;;;;;19.00;17.00;;;;;21.08;43.49;100765.32;110285;1263;19690;-40
2023/06/01 05:55:00;;;;;;;;;20.00;20.00;;;;;21.11;43.85;100765.59;110206;1263;19829;-40
2023/06/01 05:57:28;;;;;;;;;31.67;25.67;;;;;21.14;44.17;100763.77;110202;1247;21856;-41
2023/06/01 05:59:55;;;;;;;;;29.50;26.50;;;;;21.16;44.31;100766.61;110201;1247;20926;-40
2023/06/01 06:02:23;;;;;;;;;36.00;32.00;;;;;21.23;44.28;100765.87;110165;1264;19934;-40
2023/06/01 06:04:50;;;;;;;;;43.50;32.50;;;;;21.24;44.41;100767.02;110186;1265;20439;-40
2023/06/01 06:07:18;;;;;;;;;43.00;34.50;;;;;21.24;44.57;100763.36;110151;1265;20950;-40
2023/06/01 06:09:45;;;;;;;;;28.33;26.00;;;;;21.37;44.65;100761.07;110138;1250;19989;-42
2023/06/01 06:12:13;;;;;;;;;18.00;16.00;;;;;21.39;44.65;100757.37;110096;1265;21747;-40
2023/06/01 06:14:40;;;;;;;;;17.00;14.00;;;;;21.39;44.88;100758.50;110216;1249;21086;-39
2023/06/01 06:17:08;;;;;;;;;16.00;13.00;;;;;21.36;44.93;100754.63;110205;1265;19971;-41
2023/06/01 06:19:35;;;;;;;;;10.00;10.00;;;;;21.39;45.06;100753.20;110139;1265;20036;-39
2023/06/01 06:22:02;;;;;;;;;11.00;10.00;;;;;21.47;44.99;100748.07;110109;1265;20843;-41
2023/06/01 06:24:30;;;;;;;;;10.50;10.50;;;;;21.47;45.01;100750.48;110075;1250;22796;-41
2023/06/01 06:26:57;;;;;;;;;11.00;8.00;;;;;21.45;45.39;100746.23;110144;1265;20254;-41
2023/06/01 06:29:25;;;;;;;;;11.00;10.00;;;;;21.53;45.50;100740.60;110197;1251;20748;-41
2023/06/01 06:31:52;;;;;;;;;8.00;8.00;;;;;21.58;45.44;100738.21;110194;1265;18548;-41
2023/06/01 06:34:20;;;;;;;;;10.00;10.00;;;;;21.57;45.51;100735.98;110230;1264;18611;-39
2023/06/01 06:36:47;;;;;;;;;9.00;8.00;;;;;21.55;45.71;100738.36;110243;1250;19262;-41
2023/06/01 06:39:15;;;;;;;;;9.33;8.00;;;;;21.66;45.91;100736.21;110264;1265;22722;-41
2023/06/01 06:41:43;;;;;;;;;8.00;8.00;;;;;21.77;45.78;100738.90;110273;1264;18629;-40
2023/06/01 06:44:10;;;;;;;;;10.00;10.00;;;;;21.82;46.00;100742.04;110254;1257;19481;-39
2023/06/01 06:46:38;;;;;;;;;11.00;9.33;;;;;21.82;45.84;100740.46;110233;1251;19840;-39
2023/06/01 06:49:05;;;;;;;;;11.00;11.00;;;;;21.90;45.72;100742.04;110231;1264;20148;-39
2023/06/01 06:51:33;;;;;;;;;10.00;7.50;;;;;21.93;45.88;100737.58;110231;1264;19548;-41
2023/06/01 06:54:02;;;;;;;;;12.00;10.00;;;;;21.96;46.05;100731.33;110220;1265;18834;-48
2023/06/01 06:56:29;;;;;;;;;8.00;8.00;;;;;22.02;46.17;100736.56;110293;1266;20045;-41
2023/06/01 06:58:57;;;;;;;;;10.00;10.00;;;;;22.09;46.12;100739.05;110272;1266;20872;-41
2023/06/01 07:01:26;;;;;;;;;10.00;8.00;;;;;22.11;45.91;100736.79;110194;1250;19710;-40
2023/06/01 07:03:55;;;;;;;;;11.00;10.00;;;;;22.11;45.92;100734.29;110161;1264;20585;-41
2023/06/01 07:06:23;;;;;;;;;12.00;11.00;;;;;22.13;45.62;100731.61;110177;1257;22685;-41
2023/06/01 07:08:50;;;;;;;;;10.00;8.00;;;;;22.16;45.55;100730.02;110166;1265;20170;-40
2023/06/01 07:11:18;;;;;;;;;8.00;8.00;;;;;22.11;45.69;100727.29;110198;1265;20222;-40
2023/06/01 07:13:45;;;;;;;;;8.00;8.00;;;;;22.16;45.68;100719.17;110199;1265;19731;-40
2023/06/01 07:16:13;;;;;;;;;9.00;9.00;;;;;22.26;45.65;100717.83;110295;1265;21986;-40
2023/06/01 07:18:40;;;;;;;;;8.00;8.00;;;;;22.34;45.63;100714.02;110220;1265;18835;-39
2023/06/01 07:21:08;;;;;;;;;7.00;7.00;;;;;22.40;45.66;100712.98;110025;1264;19697;-41
2023/06/01 07:23:35;;;;;;;;;7.00;7.00;;;;;22.57;45.58;100707.14;110188;1265;19590;-41
2023/06/01 07:26:03;;;;;;;;;7.00;7.00;;;;;22.63;45.36;100704.89;110199;1265;18671;-41
2023/06/01 07:28:32;;;;;;;;;8.00;7.00;;;;;22.66;45.31;100703.42;110211;1265;19595;-42
2023/06/01 07:31:00;;;;;;;;;7.00;7.00;;;;;22.69;45.07;100704.16;110221;1265;20024;-41
2023/06/01 07:33:28;;;;;;;;;10.50;8.50;;;;;22.66;44.87;100705.30;110189;1265;18935;-43
2023/06/01 07:35:57;;;;;;;;;8.00;8.00;;;;;22.61;44.87;100702.77;110202;1250;22285;-42
2023/06/01 07:38:26;;;;;;;;;8.00;8.00;;;;;22.65;44.81;100696.70;110177;1265;22837;-42
2023/06/01 07:40:53;;;;;;;;;7.00;7.00;;;;;22.73;44.66;100694.75;110227;1250;20024;-41
2023/06/01 07:43:20;;;;;;;;;8.00;8.00;;;;;22.81;44.73;100693.05;110230;1257;22580;-41
2023/06/01 07:45:48;;;;;;;;;12.00;9.00;;;;;22.78;44.58;100694.14;110249;1264;19549;-40
2023/06/01 07:48:16;;;;;;;;;7.50;7.00;;;;;22.75;44.15;100697.22;110190;1250;23191;-40
2023/06/01 07:50:43;;;;;;;;;8.00;8.00;;;;;22.71;44.14;100689.25;110231;1264;22184;-41
2023/06/01 07:53:10;;;;;;;;;7.00;7.00;;;;;22.87;44.23;100687.76;110092;1264;18344;-41
2023/06/01 07:55:38;;;;;;;;;8.50;8.50;;;;;22.95;44.05;100684.89;110107;1249;20049;-41
2023/06/01 07:58:05;;;;;;;;;8.00;7.33;;;;;23.02;44.02;100689.39;110144;1251;22408;-40
2023/06/01 08:00:33;;;;;;;;;7.00;7.00;;;;;22.98;43.98;100683.82;110195;1265;22165;-42
2023/06/01 08:03:05;;;;;;;;;12.00;8.00;;;;;22.97;43.84;100683.94;110246;1250;18623;-41
2023/06/01 08:05:33;;;;;;;;;5.00;5.00;;;;;23.03;44.07;100678.20;110215;1265;20671;-41
2023/06/01 08:08:00;;;;;;;;;7.00;7.00;;;;;23.04;43.85;100680.20;110257;1264;18628;-39
2023/06/01 08:10:28;;;;;;;;;7.00;7.00;;;;;23.03;43.63;100671.61;110255;1251;20070;-40
2023/06/01 08:12:57;;;;;;;;;8.00;7.00;;;;;23.04;43.59;100666.98;110220;1265;21072;-41
2023/06/01 08:15:25;;;;;;;;;11.00;7.00;;;;;23.10;43.57;100670.88;110188;1264;18231;-41
2023/06/01 08:17:53;;;;;;;;;7.00;7.00;;;;;23.20;43.72;100669.55;110217;1265;22752;-41
2023/06/01 08:20:22;;;;;;;;;8.00;7.33;;;;;23.15;43.63;100665.09;110206;1250;20860;-41
2023/06/01 08:22:50;;;;;;;;;9.00;6.00;;;;;23.13;43.96;100662.62;110289;1250;23010;-41
2023/06/01 08:25:18;;;;;;;;;7.00;7.00;;;;;23.14;44.07;100660.91;110250;1251;20180;-40
2023/06/01 08:27:46;;;;;;;;;8.00;5.00;;;;;23.16;44.18;100659.26;110233;1265;20753;-41
2023/06/01 08:30:13;;;;;;;;;7.00;7.00;;;;;23.20;44.18;100658.28;110219;1264;18450;-41
2023/06/01 08:32:41;;;;;;;;;8.50;6.00;;;;;23.21;44.23;100658.13;110172;1265;18599;-41
2023/06/01 08:35:08;;;;;;;;;5.50;5.00;;;;;23.19;44.31;100656.73;110218;1250;20978;-41
2023/06/01 08:37:36;;;;;;;;;7.00;7.00;;;;;23.19;44.54;100654.56;110183;1264;21520;-44
2023/06/01 08:40:06;;;;;;;;;7.00;5.00;;;;;23.37;44.88;100648.05;110223;1264;20306;-41
2023/06/01 08:42:34;;;;;;;;;8.00;8.00;;;;;23.33;44.72;100648.18;110193;1265;19543;-41
2023/06/01 08:45:01;;;;;;;;;8.00;6.00;;;;;23.32;44.68;100640.71;110218;1249;23396;-41
2023/06/01 08:47:29;;;;;;;;;8.00;8.00;;;;;23.38;44.56;100643.92;110184;1264;20163;-41
2023/06/01 08:49:56;;;;;;;;;6.00;6.00;;;;;23.36;44.73;100642.16;110214;1264;21064;-43
2023/06/01 08:52:23;;;;;;;;;6.50;6.50;;;;;23.34;44.75;100638.64;110218;1251;19597;-41
2023/06/01 08:54:51;;;;;;;;;9.00;6.00;;;;;23.41;44.85;100634.58;110243;1251;21664;-40
2023/06/01 08:57:19;;;;;;;;;6.00;6.00;;;;;23.38;44.91;100630.25;110176;1257;22005;-40
2023/06/01 08:59:47;;;;;;;;;9.00;8.00;;;;;23.40;44.98;100630.15;110206;1266;21941;-40
2023/06/01 09:02:14;;;;;;;;;8.50;8.00;;;;;23.45;44.85;100623.12;110195;1265;18619;-40
2023/06/01 09:04:44;;;;;;;;;5.67;5.33;;;;;23.48;45.02;100625.84;110159;1250;20989;-40
2023/06/01 09:07:12;;;;;;;;;6.00;6.00;;;;;23.49;44.98;100624.67;110140;1264;18490;-41
2023/06/01 09:09:39;;;;;;;;;8.00;6.00;;;;;23.48;44.81;100622.14;110202;1265;18676;-41
2023/06/01 09:12:08;;;;;;;;;9.00;8.00;;;;;23.50;44.89;100621.06;110223;1264;19470;-41
2023/06/01 09:14:35;;;;;;;;;6.00;6.00;;;;;23.56;44.90;100624.14;110291;1250;18592;-42
2023/06/01 09:17:03;;;;;;;;;8.00;6.00;;;;;23.61;44.87;100621.05;110193;1250;18610;-41
2023/06/01 09:19:32;;;;;;;;;6.00;5.50;;;;;23.57;44.87;100615.90;110165;1265;21007;-41
2023/06/01 09:21:59;;;;;;;;;8.00;6.00;;;;;23.58;44.94;100623.45;110224;1265;22325;-39
2023/06/01 09:24:27;;;;;;;;;5.00;5.00;;;;;23.65;44.90;100618.77;110262;1265;20172;-40
2023/06/01 09:26:54;;;;;;;;;6.00;6.00;;;;;23.67;44.74;100614.33;110203;1264;19533;-41
2023/06/01 09:29:22;;;;;;;;;6.00;5.00;;;;;23.69;44.66;100620.73;110249;1264;18549;-41
2023/06/01 09:31:49;;;;;;;;;6.00;5.00;;;;;23.63;44.73;100618.95;110203;1260;18536;-40
2023/06/01 09:34:18;;;;;;;;;5.00;5.00;;;;;23.61;44.68;100622.21;110245;1265;20711;-40
2023/06/01 09:36:45;;;;;;;;;4.50;4.50;;;;;23.55;44.68;100623.16;110250;1250;18767;-40
2023/06/01 09:39:13;;;;;;;;;8.00;6.00;;;;;23.58;44.75;100623.48;110253;1265;18812;-40
2023/06/01 09:41:41;;;;;;;;;5.50;5.00;;;;;23.66;44.71;100625.52;110254;1264;21030;-39
2023/06/01 09:44:08;;;;;;;;;8.50;7.00;;;;;23.73;44.51;100621.70;110253;1251;19590;-39
2023/06/01 09:46:36;;;;;;;;;7.00;7.00;;;;;23.74;44.19;100621.41;110216;1251;19644;-43
2023/06/01 09:49:03;;;;;;;;;8.00;6.00;;;;;23.74;44.51;100616.31;110209;1264;19342;-41
2023/06/01 09:51:31;;;;;;;;;6.00;6.00;;;;;23.78;44.48;100613.61;110201;1265;18456;-43
2023/06/01 09:53:58;;;;;;;;;8.67;8.67;;;;;23.79;44.46;100612.63;110245;1264;20134;-41
2023/06/01 09:56:26;;;;;;;;;6.00;6.00;;;;;23.80;44.58;100614.38;110048;1260;20704;-43
2023/06/01 09:58:54;;;;;;;;;12.00;8.00;;;;;23.78;44.49;100614.58;110283;1265;20258;-40
2023/06/01 10:01:21;;;;;;;;;9.00;8.00;;;;;23.83;44.50;100609.88;110245;1256;20938;-40
2023/06/01 10:03:50;;;;;;;;;5.50;5.50;;;;;23.76;44.53;100606.17;110184;1264;21577;-40
2023/06/01 10:06:18;;;;;;;;;6.00;6.00;;;;;23.74;44.58;100604.98;110196;1265;20368;-39
2023/06/01 10:08:45;;;;;;;;;7.00;6.00;;;;;23.78;44.63;100603.81;110229;1265;18611;-40
2023/06/01 10:11:13;;;;;;;;;6.00;6.00;;;;;23.84;44.43;100604.23;110230;1265;19318;-40
2023/06/01 10:13:41;;;;;;;;;9.50;8.00;;;;;23.90;44.55;100604.04;110232;1264;19770;-40
2023/06/01 10:16:08;;;;;;;;;6.00;6.00;;;;;23.85;44.54;100605.40;110217;1264;20189;-40
2023/06/01 10:18:35;;;;;;;;;5.00;5.00;;;;;23.82;44.39;100600.88;110244;1250;20627;-42
2023/06/01 10:21:06;;;;;;;;;6.00;6.00;;;;;23.82;44.20;100594.17;110220;1251;19833;-40
2023/06/01 10:23:33;;;;;;;;;6.00;6.00;;;;;23.79;44.08;100594.88;110251;1265;21857;-40
2023/06/01 10:26:01;;;;;;;;;8.00;5.00;;;;;23.75;43.85;100596.63;110226;1265;19473;-40
2023/06/01 10:28:29;;;;;;;;;9.00;8.00;;;;;23.74;43.83;100594.96;110217;1251;18559;-40
2023/06/01 10:30:56;;;;;;;;;6.00;5.50;;;;;23.75;43.56;100599.98;110223;1250;21963;-40
2023/06/01 10:33:24;;;;;;;;;8.00;6.67;;;;;23.72;43.63;100597.56;110238;1251;21001;-40
2023/06/01 10:35:51;;;;;;;;;5.00;5.00;;;;;23.77;43.56;100594.27;110230;1251;18804;-47
2023/06/01 10:38:18;;;;;;;;;7.00;7.00;;;;;23.75;43.58;100595.98;110222;1265;19995;-40
2023/06/01 10:40:46;;;;;;;;;8.00;7.00;;;;;23.77;43.41;100592.06;110183;1251;21093;-40
2023/06/01 10:43:14;;;;;;;;;9.00;6.00;;;;;23.86;43.26;100596.56;110208;1259;19704;-40
2023/06/01 10:45:41;;;;;;;;;8.00;8.00;;;;;23.90;43.21;100599.20;110248;1264;19892;-40
2023/06/01 10:48:10;;;;;;;;;9.00;8.00;;;;;23.86;43.09;100600.36;110202;1250;21010;-41
2023/06/01 10:50:37;;;;;;;;;7.33;6.67;;;;;23.82;43.12;100596.63;110204;1264;19570;-41
2023/06/01 10:53:05;;;;;;;;;9.00;8.00;;;;;23.85;43.24;100595.55;110190;1265;18814;-40
2023/06/01 10:55:32;;;;;;;;;7.00;7.00;;;;;23.85;43.09;100595.20;110207;1250;22626;-41
2023/06/01 10:58:00;;;;;;;;;8.00;8.00;;;;;23.87;43.16;100593.41;110175;1265;19689;-40
2023/06/01 11:00:27;;;;;;;;;8.00;8.00;;;;;23.86;43.26;100589.54;110206;1265;18644;-41
2023/06/01 11:02:55;;;;;;;;;9.33;9.33;;;;;23.83;43.34;100582.81;110233;1265;20909;-40
2023/06/01 11:05:23;;;;;;;;;9.50;8.50;;;;;23.85;43.29;100580.98;110185;1265;19571;-40
2023/06/01 11:07:51;;;;;;;;;6.67;6.67;;;;;23.83;43.01;100581.73;110204;1264;19970;-39
2023/06/01 11:10:18;;;;;;;;;8.00;8.00;;;;;23.82;43.13;100582.10;110221;1250;21112;-42
2023/06/01 11:12:46;;;;;;;;;10.00;9.00;;;;;23.80;43.44;100585.23;110189;1264;18345;-40